OPA Logo
 
ASOS:
At:2021.09.25 0615 UTC
Wind:220° @ 6KT
Viz: 10 mile(s)
Sky: clear
Temp: 55 F (13 C)
DewP: 35 F (2 C)
RH: 47%
Baro: 30.04 in.
ob: KBDN 250615Z AUTO 22006KT 10SM CLR 13/02 A3004 RMK AO2

ASOS: KRDM
At:2021.09.25 0556 UTC
Wind:210° @ 3KT
Viz: 10 mile(s)
Sky: clear
Temp: 54.0 F (12.2 C)
DewP: 35.1 F (1.7 C)
RH: 48%
Baro: 30.01 in.
ob: KRDM 250556Z AUTO 21003KT 10SM CLR 12/02 A3001 RMK AO2 SLP145 T01220017 10278 20122 51005
Apache-SSL Logo

Valid HTML 4.01!

Links:

Aviation Calendars:

OPA Calendar

Weather Links:

Bend AWOS (Requires Flash, does not work for me)

Weather.gov Weather from the horses mouth: NOAA

Aviationweather.gov NOAA weather for pilots

Aviation Digital Data Service (ADDS) - Very cool graphics.

National Center for Atmospheric Research (NCAR) - Research Applications Program (RAP) Real Time Weather DataCurrent weather data in detailed graphic format.

Plymouth State University Meteorology DepartmentMake your own weather maps and charts.

Z21 local weather

KOHD local weather

Flight Planning:

Duat.com - FAA legal briefing, login required

Duats.com - FAA legal briefing, login required

Airnav - Airport Info, Fuel Planning

Aeroplaner - Graphical TFRs

Flightprep

Bureau of Land Management - Aviation Office - good graphical TFRs! (Down Oct 2009)

Aviation Toolboxdownload current sectionals and terminal area charts.

I Fly OregonPersonal recommendations on the $100 hamburger.

Weather Cams:

Oregon Department of Transportation/TripCheck

Redmond (RDM)

Eye on Bend

Mt Hood

Mt Shasta

Government Links:

Bend Airport

FAA - Graphical TFRs

FAA Wright Brothers Award

NTSB Searchable Aviation Accident Database

Oregon Department of Aviation (ODA)

ODA public us airports on-line

Bend Airport Aviation Links:

KBDN Online Groupsite/a>

Bend Airport information from Airnav

Cafe 3456

Windward Performance

Balloons Over Bend

Electronics International

Epic Aircraft

Leading Edge Aviation

Precise Flight

Professional Air

Pilot Association Links:

Aircraft Owners and Pilots Association (AOPA)

Oregon Pilots Association (OPA)

Cessna Pilots Association (CPA)

The Central Oregon Ninety-Nines

The Ninety-Nines

Palms To Pines Air Race

Angel Flight West - Oregon Wing

Aviation News:

Avweb - Twice Weekly News and Columns

Landings - Extensive Aviation Links

Planes for Sale:

ASO

Findaircraft

MyPlane

Other:

Ken Couch Cluster Ballooning


Web page by: gem@rellim.com